CCGS Cape Naden — CFN5482 — position and weather

sailwx.info

Track history (hours):
 
Tides and Currents Weather Stations Pressure Air Temp Water Temp Dewpoint Dewpoint Depression Visibility Wind Speed Wind Dir Waves Ship Positions

CCGS Cape Naden

Last reported at 2016-Jun-01 01:27 UTC. Time now 2016-Jun-01 01:41 UTC.
Position N 48°51' W 123°30'.

Length 15 m; draft 0.8 m.

Type: SAR. MMSI: 316017162.

Date/timePositionNaut miles runAvg speedWind from/ knotsBaromVisibWave heightAir tempDewpointWater temp
2016-Jun-01 01:27N 48°51' W 123°30'0 0.0
2016-Jun-01 00:26N 48°51' W 123°30'0 0.0
2016-May-31 23:33N 48°51' W 123°30'0 0.0
2016-May-31 22:21N 48°51' W 123°30'0 0.0
2016-May-31 17:25N 48°51' W 123°30'0 0.0
2016-May-31 16:33N 48°51' W 123°30'0 0.0
2016-May-31 15:33N 48°51' W 123°30'0 0.0
2016-May-31 14:28N 48°51' W 123°30'0 0.0
2016-May-31 13:33N 48°51' W 123°30'0 0.0
2016-May-31 12:33N 48°51' W 123°30'0 0.0
2016-May-31 11:33N 48°51' W 123°30'0 0.0
2016-May-31 10:32N 48°51' W 123°30'0 0.0
2016-May-31 09:33N 48°51' W 123°30'0 0.0
2016-May-31 08:33N 48°51' W 123°30'0 0.0
2016-May-31 07:33N 48°51' W 123°30'0 0.0
2016-May-31 06:33N 48°51' W 123°30'0 0.0
2016-May-31 04:30N 48°51' W 123°30'0 0.0
2016-May-31 03:31N 48°51' W 123°30'0 0.0
2016-May-31 02:25N 48°51' W 123°30'0 0.0
2016-May-31 01:05N 48°51' W 123°30'0 0.0
2016-May-31 00:33N 48°51' W 123°30'0 0.0
2016-May-30 22:31N 48°51' W 123°30'0 0.0
2016-May-30 20:29N 48°51' W 123°30'0 0.0
2016-May-30 19:22N 48°51' W 123°30'4 4.9
2016-May-30 18:33N 48°49' W 123°25'1514.5
2016-May-30 17:33N 48°35' W 123°17'1211.6
2016-May-30 16:34N 48°24' W 123°18'4 3.9
2016-May-30 15:34N 48°25' W 123°23'0 0.0
2016-May-30 14:34N 48°25' W 123°23'0 0.0
2016-May-30 13:34N 48°25' W 123°23'0 0.0
2016-May-30 12:33N 48°25' W 123°23'0 0.0
2016-May-30 11:34N 48°25' W 123°23'0 0.0
2016-May-30 10:34N 48°25' W 123°23'0 0.0
2016-May-30 09:34N 48°25' W 123°23'0 0.0
2016-May-30 08:33N 48°25' W 123°23'0 0.0
2016-May-30 07:34N 48°25' W 123°23'0 0.0
2016-May-30 06:34N 48°25' W 123°23'0 0.0
2016-May-30 05:34N 48°25' W 123°23'0 0.0
2016-May-30 04:34N 48°25' W 123°23'0 0.0
2016-May-30 03:33N 48°25' W 123°23'0 0.0
2016-May-30 02:33N 48°25' W 123°23'0 0.0
2016-May-30 01:34N 48°25' W 123°23'0 0.0
2016-May-30 00:34N 48°25' W 123°23'0 0.0
2016-May-29 23:33N 48°25' W 123°23'0 0.0
2016-May-29 22:34N 48°25' W 123°23'0 0.0
2016-May-29 21:33N 48°25' W 123°23'0 0.1
2016-May-29 20:34N 48°25' W 123°23'4 3.6
2016-May-29 19:34N 48°22' W 123°23'8 6.8
2016-May-29 18:21N 48°18' W 123°34'3 3.1
2016-May-29 17:30N 48°20' W 123°31'6 6.4
2016-May-29 16:33N 48°24' W 123°25'2 1.6
2016-May-29 15:33N 48°25' W 123°23'0 0.0
2016-May-29 14:33N 48°25' W 123°23'0 0.0
2016-May-29 13:33N 48°25' W 123°23'0 0.0
2016-May-29 12:33N 48°25' W 123°23'0 0.0
2016-May-29 11:33N 48°25' W 123°23'0 0.0
2016-May-29 10:33N 48°25' W 123°23'0 0.0
2016-May-29 09:33N 48°25' W 123°23'0 0.0
2016-May-29 08:33N 48°25' W 123°23'0 0.0
2016-May-29 07:33N 48°25' W 123°23'0 0.0
2016-May-29 06:33N 48°25' W 123°23'0 0.0
2016-May-29 05:33N 48°25' W 123°23'0 0.0
2016-May-29 04:33N 48°25' W 123°23'0 0.0
2016-May-29 03:33N 48°25' W 123°23'0 0.0
2016-May-29 02:33N 48°25' W 123°23'0 0.0
2016-May-29 01:29N 48°25' W 123°23'0 0.0
2016-May-29 00:33N 48°25' W 123°23'0 0.0
2016-May-28 23:33N 48°25' W 123°23'0 0.0
2016-May-28 22:34N 48°25' W 123°23'8 7.8
2016-May-28 21:31N 48°20' W 123°32'8 8.3
2016-May-28 20:32N 48°25' W 123°23'6 6.6
2016-May-28 19:34N 48°31' W 123°19'5 4.9
2016-May-28 18:33N 48°34' W 123°12'1312.7
2016-May-28 17:33N 48°24' W 123°24'3 3.4
2016-May-28 16:33N 48°24' W 123°19'0 0.2
2016-May-28 15:33N 48°24' W 123°19'1 1.4
2016-May-28 14:34N 48°25' W 123°17'2417.0
2016-May-28 13:09N 48°49' W 123°25'4 6.9
2016-May-28 12:32N 48°51' W 123°30'0 0.0
2016-May-28 11:29N 48°51' W 123°30'0 0.0
2016-May-28 10:32N 48°51' W 123°30'0 0.0
2016-May-28 09:31N 48°51' W 123°30'0 0.0
2016-May-28 08:32N 48°51' W 123°30'0 0.0
2016-May-28 07:33N 48°51' W 123°30'0 0.0
2016-May-28 06:31N 48°51' W 123°30'0 0.0
2016-May-28 05:31N 48°51' W 123°30'0 0.0
2016-May-28 04:33N 48°51' W 123°30'0 0.0
2016-May-28 03:33N 48°51' W 123°30'0 0.0
2016-May-28 02:32N 48°51' W 123°30'0 0.0
2016-May-28 01:25N 48°51' W 123°30'0 0.0
2016-May-28 00:31N 48°51' W 123°30'0 0.0
2016-May-27 23:10N 48°51' W 123°30'812.5
2016-May-27 22:33N 48°54' W 123°19'1111.5
2016-May-27 21:34N 49°05' W 123°25'3 3.3
2016-May-27 20:34N 49°05' W 123°30'1312.2
2016-May-27 19:27N 48°51' W 123°30'0 0.0
2016-May-27 18:30N 48°51' W 123°30'0 0.0
2016-May-27 17:32N 48°51' W 123°30'0 0.0
2016-May-27 16:26N 48°51' W 123°30'0 0.0
2016-May-27 15:33N 48°51' W 123°30'0 0.0
2016-May-27 14:33N 48°51' W 123°30'0 0.0
2016-May-27 13:33N 48°51' W 123°30'0 0.0
2016-May-27 12:27N 48°51' W 123°30'0 0.0
2016-May-27 11:32N 48°51' W 123°30'0 0.0
2016-May-27 10:31N 48°51' W 123°30'0 0.0
2016-May-27 09:29N 48°51' W 123°30'0 0.0
2016-May-27 08:32N 48°51' W 123°30'0 0.0
2016-May-27 07:32N 48°51' W 123°30'0 0.0
2016-May-27 06:31N 48°51' W 123°30'0 0.0
2016-May-27 05:32N 48°51' W 123°30'0 0.0
2016-May-27 04:30N 48°51' W 123°30'0 0.0
2016-May-27 03:33N 48°51' W 123°30'0 0.0
2016-May-27 02:32N 48°51' W 123°30'0 0.0
2016-May-27 01:33N 48°51' W 123°30'0 0.0
2016-May-27 00:33N 48°51' W 123°30'0 0.0
2016-May-26 23:15N 48°51' W 123°30'0 0.0
2016-May-26 22:33N 48°51' W 123°30'0 0.0
2016-May-26 20:20N 48°51' W 123°30'0 0.0
2016-May-26 19:22N 48°51' W 123°30'0 0.0
2016-May-26 18:28N 48°51' W 123°30'0 0.0
2016-May-26 17:23N 48°51' W 123°30'0 0.0
2016-May-26 16:19N 48°51' W 123°30'0 0.0
2016-May-26 15:29N 48°51' W 123°30'0 0.0
2016-May-26 14:31N 48°51' W 123°30'0 0.0
2016-May-26 13:33N 48°51' W 123°30'0 0.0
2016-May-26 12:33N 48°51' W 123°30'0 0.0
2016-May-26 11:29N 48°51' W 123°30'0 0.0
2016-May-26 10:32N 48°51' W 123°30'0 0.0
2016-May-26 09:25N 48°51' W 123°30'0 0.0
2016-May-26 08:30N 48°51' W 123°30'0 0.0
2016-May-26 07:26N 48°51' W 123°30'0 0.0
2016-May-26 06:33N 48°51' W 123°30'0 0.0
2016-May-26 05:31N 48°51' W 123°30'0 0.0
2016-May-26 04:28N 48°51' W 123°30'0 0.0
2016-May-26 03:33N 48°51' W 123°30'0 0.0
2016-May-26 02:32N 48°51' W 123°30'0 0.0
2016-May-26 01:31N 48°51' W 123°30'0 0.0
2016-May-26 00:33N 48°51' W 123°30'0 0.0
2016-May-25 23:28N 48°51' W 123°30'0 0.1
2016-May-25 22:24N 48°51' W 123°30'1111.9
2016-May-25 21:30N 49°00' W 123°39'2 2.2
2016-May-25 20:32N 49°01' W 123°42'1 1.0
2016-May-25 19:32N 49°01' W 123°40'1611.9
2016-May-25 18:12N 48°52' W 123°20'4 6.3
2016-May-25 17:33N 48°55' W 123°19'3 3.0
2016-May-25 16:33N 48°52' W 123°18'8 6.0
2016-May-25 15:14N 48°51' W 123°30'0 0.0
2016-May-25 14:29N 48°51' W 123°30'0 0.0
2016-May-25 13:33N 48°51' W 123°30'0 0.0
2016-May-25 12:32N 48°51' W 123°30'0 0.0
2016-May-25 11:33N 48°51' W 123°30'0 0.0
2016-May-25 10:33N 48°51' W 123°30'0 0.0
2016-May-25 07:19N 48°51' W 123°30'0 0.0
2016-May-25 06:27N 48°51' W 123°30'0 0.0
2016-May-25 05:22N 48°51' W 123°30'0 0.0
2016-May-25 04:28N 48°51' W 123°30'0 0.0
2016-May-25 03:32N 48°51' W 123°30'0 0.0
2016-May-25 02:33N 48°51' W 123°30'0 0.0
2016-May-25 01:33N 48°51' W 123°30'0 0.0
2016-May-25 00:27N 48°51' W 123°30'1010.1
2016-May-24 23:29N 49°00' W 123°36'8 8.5
2016-May-24 22:30N 48°54' W 123°28'3 0.1
2016-May-24 03:16N 48°51' W 123°30'0 0.0
2016-May-24 02:16N 48°51' W 123°30'0 0.0
2016-May-23 23:28N 48°51' W 123°30'0 0.0
2016-May-23 22:10N 48°51' W 123°30'0 0.0
2016-May-23 16:15N 48°51' W 123°30'0 0.0
2016-May-23 14:29N 48°51' W 123°30'0 0.0
2016-May-23 13:17N 48°51' W 123°30'0 0.0
2016-May-23 12:17N 48°51' W 123°30'0 0.0
2016-May-23 04:11N 48°51' W 123°30'0 0.0
2016-May-23 03:29N 48°51' W 123°30'0 0.0
2016-May-23 02:29N 48°51' W 123°30'0 0.0
2016-May-23 01:29N 48°51' W 123°30'0 0.0
2016-May-22 22:32N 48°51' W 123°30'1111.7
2016-May-22 21:33N 48°50' W 123°13'11 8.0
2016-May-22 20:08N 48°51' W 123°30'0 0.0
2016-May-22 13:18N 48°51' W 123°30'0 0.0
2016-May-22 12:30N 48°51' W 123°30'0 0.0
2016-May-22 09:12N 48°51' W 123°30'0 0.0
2016-May-22 04:18N 48°51' W 123°30'0 0.0
2016-May-22 03:30N 48°51' W 123°30'0 0.0
2016-May-22 02:30N 48°51' W 123°30'  
Track history (hours):
 
Tides and Currents Weather Stations Pressure Air Temp Water Temp Dewpoint Dewpoint Depression Visibility Wind Speed Wind Dir Waves Ship Positions

CCGS Cape Naden

Last reported at 2016-Jun-01 01:27 UTC. Time now 2016-Jun-01 01:41 UTC.
Position N 48°51' W 123°30'.

Length 15 m; draft 0.8 m.

Type: SAR. MMSI: 316017162.

Date/timePositionNaut miles runAvg speedWind from/ knotsBaromVisibWave heightAir tempDewpointWater temp
2016-Jun-01 01:27N 48°51' W 123°30'0 0.0
2016-Jun-01 00:26N 48°51' W 123°30'0 0.0
2016-May-31 23:33N 48°51' W 123°30'0 0.0
2016-May-31 22:21N 48°51' W 123°30'0 0.0
2016-May-31 17:25N 48°51' W 123°30'0 0.0
2016-May-31 16:33N 48°51' W 123°30'0 0.0
2016-May-31 15:33N 48°51' W 123°30'0 0.0
2016-May-31 14:28N 48°51' W 123°30'0 0.0
2016-May-31 13:33N 48°51' W 123°30'0 0.0
2016-May-31 12:33N 48°51' W 123°30'0 0.0
2016-May-31 11:33N 48°51' W 123°30'0 0.0
2016-May-31 10:32N 48°51' W 123°30'0 0.0
2016-May-31 09:33N 48°51' W 123°30'0 0.0
2016-May-31 08:33N 48°51' W 123°30'0 0.0
2016-May-31 07:33N 48°51' W 123°30'0 0.0
2016-May-31 06:33N 48°51' W 123°30'0 0.0
2016-May-31 04:30N 48°51' W 123°30'0 0.0
2016-May-31 03:31N 48°51' W 123°30'0 0.0
2016-May-31 02:25N 48°51' W 123°30'0 0.0
2016-May-31 01:05N 48°51' W 123°30'0 0.0
2016-May-31 00:33N 48°51' W 123°30'0 0.0
2016-May-30 22:31N 48°51' W 123°30'0 0.0
2016-May-30 20:29N 48°51' W 123°30'0 0.0
2016-May-30 19:22N 48°51' W 123°30'4 4.9
2016-May-30 18:33N 48°49' W 123°25'1514.5
2016-May-30 17:33N 48°35' W 123°17'1211.6
2016-May-30 16:34N 48°24' W 123°18'4 3.9
2016-May-30 15:34N 48°25' W 123°23'0 0.0
2016-May-30 14:34N 48°25' W 123°23'0 0.0
2016-May-30 13:34N 48°25' W 123°23'0 0.0
2016-May-30 12:33N 48°25' W 123°23'0 0.0
2016-May-30 11:34N 48°25' W 123°23'0 0.0
2016-May-30 10:34N 48°25' W 123°23'0 0.0
2016-May-30 09:34N 48°25' W 123°23'0 0.0
2016-May-30 08:33N 48°25' W 123°23'0 0.0
2016-May-30 07:34N 48°25' W 123°23'0 0.0
2016-May-30 06:34N 48°25' W 123°23'0 0.0
2016-May-30 05:34N 48°25' W 123°23'0 0.0
2016-May-30 04:34N 48°25' W 123°23'0 0.0
2016-May-30 03:33N 48°25' W 123°23'0 0.0
2016-May-30 02:33N 48°25' W 123°23'0 0.0
2016-May-30 01:34N 48°25' W 123°23'0 0.0
2016-May-30 00:34N 48°25' W 123°23'0 0.0
2016-May-29 23:33N 48°25' W 123°23'0 0.0
2016-May-29 22:34N 48°25' W 123°23'0 0.0
2016-May-29 21:33N 48°25' W 123°23'0 0.1
2016-May-29 20:34N 48°25' W 123°23'4 3.6
2016-May-29 19:34N 48°22' W 123°23'8 6.8
2016-May-29 18:21N 48°18' W 123°34'3 3.1
2016-May-29 17:30N 48°20' W 123°31'6 6.4
2016-May-29 16:33N 48°24' W 123°25'2 1.6
2016-May-29 15:33N 48°25' W 123°23'0 0.0
2016-May-29 14:33N 48°25' W 123°23'0 0.0
2016-May-29 13:33N 48°25' W 123°23'0 0.0
2016-May-29 12:33N 48°25' W 123°23'0 0.0
2016-May-29 11:33N 48°25' W 123°23'0 0.0
2016-May-29 10:33N 48°25' W 123°23'0 0.0
2016-May-29 09:33N 48°25' W 123°23'0 0.0
2016-May-29 08:33N 48°25' W 123°23'0 0.0
2016-May-29 07:33N 48°25' W 123°23'0 0.0
2016-May-29 06:33N 48°25' W 123°23'0 0.0
2016-May-29 05:33N 48°25' W 123°23'0 0.0
2016-May-29 04:33N 48°25' W 123°23'0 0.0
2016-May-29 03:33N 48°25' W 123°23'0 0.0
2016-May-29 02:33N 48°25' W 123°23'0 0.0
2016-May-29 01:29N 48°25' W 123°23'0 0.0
2016-May-29 00:33N 48°25' W 123°23'0 0.0
2016-May-28 23:33N 48°25' W 123°23'0 0.0
2016-May-28 22:34N 48°25' W 123°23'8 7.8
2016-May-28 21:31N 48°20' W 123°32'8 8.3
2016-May-28 20:32N 48°25' W 123°23'6 6.6
2016-May-28 19:34N 48°31' W 123°19'5 4.9
2016-May-28 18:33N 48°34' W 123°12'1312.7
2016-May-28 17:33N 48°24' W 123°24'3 3.4
2016-May-28 16:33N 48°24' W 123°19'0 0.2
2016-May-28 15:33N 48°24' W 123°19'1 1.4
2016-May-28 14:34N 48°25' W 123°17'2417.0
2016-May-28 13:09N 48°49' W 123°25'4 6.9
2016-May-28 12:32N 48°51' W 123°30'0 0.0
2016-May-28 11:29N 48°51' W 123°30'0 0.0
2016-May-28 10:32N 48°51' W 123°30'0 0.0
2016-May-28 09:31N 48°51' W 123°30'0 0.0
2016-May-28 08:32N 48°51' W 123°30'0 0.0
2016-May-28 07:33N 48°51' W 123°30'0 0.0
2016-May-28 06:31N 48°51' W 123°30'0 0.0
2016-May-28 05:31N 48°51' W 123°30'0 0.0
2016-May-28 04:33N 48°51' W 123°30'0 0.0
2016-May-28 03:33N 48°51' W 123°30'0 0.0
2016-May-28 02:32N 48°51' W 123°30'0 0.0
2016-May-28 01:25N 48°51' W 123°30'0 0.0
2016-May-28 00:31N 48°51' W 123°30'0 0.0
2016-May-27 23:10N 48°51' W 123°30'812.5
2016-May-27 22:33N 48°54' W 123°19'1111.5
2016-May-27 21:34N 49°05' W 123°25'3 3.3
2016-May-27 20:34N 49°05' W 123°30'1312.2
2016-May-27 19:27N 48°51' W 123°30'0 0.0
2016-May-27 18:30N 48°51' W 123°30'0 0.0
2016-May-27 17:32N 48°51' W 123°30'0 0.0
2016-May-27 16:26N 48°51' W 123°30'0 0.0
2016-May-27 15:33N 48°51' W 123°30'0 0.0
2016-May-27 14:33N 48°51' W 123°30'0 0.0
2016-May-27 13:33N 48°51' W 123°30'0 0.0
2016-May-27 12:27N 48°51' W 123°30'0 0.0
2016-May-27 11:32N 48°51' W 123°30'0 0.0
2016-May-27 10:31N 48°51' W 123°30'0 0.0
2016-May-27 09:29N 48°51' W 123°30'0 0.0
2016-May-27 08:32N 48°51' W 123°30'0 0.0
2016-May-27 07:32N 48°51' W 123°30'0 0.0
2016-May-27 06:31N 48°51' W 123°30'0 0.0
2016-May-27 05:32N 48°51' W 123°30'0 0.0
2016-May-27 04:30N 48°51' W 123°30'0 0.0
2016-May-27 03:33N 48°51' W 123°30'0 0.0
2016-May-27 02:32N 48°51' W 123°30'0 0.0
2016-May-27 01:33N 48°51' W 123°30'0 0.0
2016-May-27 00:33N 48°51' W 123°30'0 0.0
2016-May-26 23:15N 48°51' W 123°30'0 0.0
2016-May-26 22:33N 48°51' W 123°30'0 0.0
2016-May-26 20:20N 48°51' W 123°30'0 0.0
2016-May-26 19:22N 48°51' W 123°30'0 0.0
2016-May-26 18:28N 48°51' W 123°30'0 0.0
2016-May-26 17:23N 48°51' W 123°30'0 0.0
2016-May-26 16:19N 48°51' W 123°30'0 0.0
2016-May-26 15:29N 48°51' W 123°30'0 0.0
2016-May-26 14:31N 48°51' W 123°30'0 0.0
2016-May-26 13:33N 48°51' W 123°30'0 0.0
2016-May-26 12:33N 48°51' W 123°30'0 0.0
2016-May-26 11:29N 48°51' W 123°30'0 0.0
2016-May-26 10:32N 48°51' W 123°30'0 0.0
2016-May-26 09:25N 48°51' W 123°30'0 0.0
2016-May-26 08:30N 48°51' W 123°30'0 0.0
2016-May-26 07:26N 48°51' W 123°30'0 0.0
2016-May-26 06:33N 48°51' W 123°30'0 0.0
2016-May-26 05:31N 48°51' W 123°30'0 0.0
2016-May-26 04:28N 48°51' W 123°30'0 0.0
2016-May-26 03:33N 48°51' W 123°30'0 0.0
2016-May-26 02:32N 48°51' W 123°30'0 0.0
2016-May-26 01:31N 48°51' W 123°30'0 0.0
2016-May-26 00:33N 48°51' W 123°30'0 0.0
2016-May-25 23:28N 48°51' W 123°30'0 0.1
2016-May-25 22:24N 48°51' W 123°30'1111.9
2016-May-25 21:30N 49°00' W 123°39'2 2.2
2016-May-25 20:32N 49°01' W 123°42'1 1.0
2016-May-25 19:32N 49°01' W 123°40'1611.9
2016-May-25 18:12N 48°52' W 123°20'4 6.3
2016-May-25 17:33N 48°55' W 123°19'3 3.0
2016-May-25 16:33N 48°52' W 123°18'8 6.0
2016-May-25 15:14N 48°51' W 123°30'0 0.0
2016-May-25 14:29N 48°51' W 123°30'0 0.0
2016-May-25 13:33N 48°51' W 123°30'0 0.0
2016-May-25 12:32N 48°51' W 123°30'0 0.0
2016-May-25 11:33N 48°51' W 123°30'0 0.0
2016-May-25 10:33N 48°51' W 123°30'0 0.0
2016-May-25 07:19N 48°51' W 123°30'0 0.0
2016-May-25 06:27N 48°51' W 123°30'0 0.0
2016-May-25 05:22N 48°51' W 123°30'0 0.0
2016-May-25 04:28N 48°51' W 123°30'0 0.0
2016-May-25 03:32N 48°51' W 123°30'0 0.0
2016-May-25 02:33N 48°51' W 123°30'0 0.0
2016-May-25 01:33N 48°51' W 123°30'0 0.0
2016-May-25 00:27N 48°51' W 123°30'1010.1
2016-May-24 23:29N 49°00' W 123°36'8 8.5
2016-May-24 22:30N 48°54' W 123°28'3 0.1
2016-May-24 03:16N 48°51' W 123°30'0 0.0
2016-May-24 02:16N 48°51' W 123°30'0 0.0
2016-May-23 23:28N 48°51' W 123°30'0 0.0
2016-May-23 22:10N 48°51' W 123°30'0 0.0
2016-May-23 16:15N 48°51' W 123°30'0 0.0
2016-May-23 14:29N 48°51' W 123°30'0 0.0
2016-May-23 13:17N 48°51' W 123°30'0 0.0
2016-May-23 12:17N 48°51' W 123°30'0 0.0
2016-May-23 04:11N 48°51' W 123°30'0 0.0
2016-May-23 03:29N 48°51' W 123°30'0 0.0
2016-May-23 02:29N 48°51' W 123°30'0 0.0
2016-May-23 01:29N 48°51' W 123°30'0 0.0
2016-May-22 22:32N 48°51' W 123°30'1111.7
2016-May-22 21:33N 48°50' W 123°13'11 8.0
2016-May-22 20:08N 48°51' W 123°30'0 0.0
2016-May-22 13:18N 48°51' W 123°30'0 0.0
2016-May-22 12:30N 48°51' W 123°30'0 0.0
2016-May-22 09:12N 48°51' W 123°30'0 0.0
2016-May-22 04:18N 48°51' W 123°30'0 0.0
2016-May-22 03:30N 48°51' W 123°30'0 0.0
2016-May-22 02:30N 48°51' W 123°30'  

Dump ship's entire track history